Time;durP1;ratioP1;P1;durP2;ratioP2;P2;SDS_P1;SDS_P2;PMS_P1;PMS_P2;Temp;Humidity;BMP_temperature;BMP_pressure;BME280_temperature;BME280_humidity;BME280_pressure;Samples;Min_cycle;Max_cycle;Signal;HPM_P1;HPM_P2
2022/02/22 00:01:37;;;;;;;20.30;3.17;;;5.60;99.90;;;;;;5031950;28;20499;-63
2022/02/22 00:04:05;;;;;;;18.10;3.63;;;5.60;99.90;;;;;;5032742;28;20470;-63
2022/02/22 00:06:33;;;;;;;18.20;3.63;;;5.50;99.90;;;;;;5032478;28;20464;-63
2022/02/22 00:09:01;;;;;;;16.37;3.87;;;5.50;99.90;;;;;;5027782;28;20479;-63
2022/02/22 00:11:30;;;;;;;24.07;4.00;;;5.50;99.90;;;;;;5012337;28;20263;-63
2022/02/22 00:13:58;;;;;;;21.20;3.83;;;5.50;99.90;;;;;;5029293;28;20243;-63
2022/02/22 00:16:26;;;;;;;25.73;4.97;;;5.50;99.90;;;;;;5032082;28;20478;-63
2022/02/22 00:18:56;;;;;;;29.27;4.40;;;5.50;99.90;;;;;;5032154;28;20518;-63
2022/02/22 00:21:24;;;;;;;23.67;4.37;;;5.50;99.90;;;;;;5032189;28;20326;-63
2022/02/22 00:23:52;;;;;;;28.57;4.07;;;5.50;99.90;;;;;;5032028;28;20241;-63
2022/02/22 00:26:20;;;;;;;23.03;4.70;;;5.50;99.90;;;;;;5032203;28;20297;-63
2022/02/22 00:28:48;;;;;;;17.17;4.23;;;5.40;99.90;;;;;;5031820;28;20596;-63
2022/02/22 00:31:17;;;;;;;21.77;4.00;;;5.40;99.90;;;;;;5030006;28;20483;-63
2022/02/22 00:33:45;;;;;;;28.53;4.40;;;5.40;99.90;;;;;;5032422;28;20242;-63
2022/02/22 00:36:14;;;;;;;22.67;3.90;;;5.40;99.90;;;;;;5031993;28;20487;-63
2022/02/22 00:38:43;;;;;;;22.23;4.03;;;5.50;99.90;;;;;;5031543;28;21005;-63
2022/02/22 00:41:11;;;;;;;16.03;3.60;;;5.40;99.90;;;;;;5031905;28;20267;-63
2022/02/22 00:43:39;;;;;;;22.20;3.70;;;5.40;99.90;;;;;;5031398;28;20478;-63
2022/02/22 00:46:08;;;;;;;24.80;3.57;;;5.40;99.90;;;;;;5032141;28;20649;-63
2022/02/22 00:48:36;;;;;;;23.30;3.70;;;5.40;99.90;;;;;;5031643;28;20232;-64
2022/02/22 00:51:04;;;;;;;28.03;4.20;;;5.40;99.90;;;;;;5031812;28;20964;-63
2022/02/22 00:53:34;;;;;;;17.27;3.23;;;5.50;99.90;;;;;;5031988;28;20243;-63
2022/02/22 00:56:02;;;;;;;23.37;4.10;;;5.50;99.90;;;;;;5031417;28;20626;-63
2022/02/22 00:58:30;;;;;;;18.07;4.07;;;5.50;99.90;;;;;;5031103;28;20478;-63
2022/02/22 01:00:58;;;;;;;24.30;3.73;;;5.40;99.90;;;;;;5030925;28;20716;-63
2022/02/22 01:03:27;;;;;;;19.80;4.60;;;5.40;99.90;;;;;;5031147;28;20262;-63
2022/02/22 01:05:56;;;;;;;27.43;4.43;;;5.40;99.90;;;;;;5031494;28;20263;-63
2022/02/22 01:08:25;;;;;;;28.50;4.03;;;5.40;99.90;;;;;;5030648;28;20485;-63
2022/02/22 01:10:54;;;;;;;17.40;3.47;;;5.50;99.90;;;;;;5031177;28;20478;-63
2022/02/22 01:13:23;;;;;;;20.60;3.77;;;5.50;99.90;;;;;;5031879;28;20262;-63
2022/02/22 01:15:51;;;;;;;19.57;3.90;;;5.50;99.90;;;;;;5031294;28;20323;-63
2022/02/22 01:18:20;;;;;;;18.23;3.40;;;5.50;99.90;;;;;;5031129;28;20654;-63
2022/02/22 01:20:48;;;;;;;16.40;3.60;;;5.40;99.90;;;;;;5030936;28;20478;-63
2022/02/22 01:23:16;;;;;;;17.00;3.40;;;5.40;99.90;;;;;;5031007;28;20700;-63
2022/02/22 01:25:44;;;;;;;22.40;4.27;;;5.40;99.90;;;;;;5030993;28;20247;-63
2022/02/22 01:28:14;;;;;;;21.43;3.37;;;5.40;99.90;;;;;;5031141;28;20490;-63
2022/02/22 01:30:42;;;;;;;20.10;3.93;;;5.40;99.90;;;;;;5030166;28;20592;-63
2022/02/22 01:33:11;;;;;;;17.07;3.20;;;5.40;99.90;;;;;;5031832;28;20499;-63
2022/02/22 01:35:40;;;;;;;22.10;3.60;;;5.50;99.90;;;;;;5030812;28;20554;-63
2022/02/22 01:38:08;;;;;;;18.50;3.10;;;5.50;99.90;;;;;;5031199;28;20466;-63
2022/02/22 01:40:36;;;;;;;17.53;3.90;;;5.40;99.90;;;;;;5030570;28;21007;-63
2022/02/22 01:43:04;;;;;;;15.13;3.33;;;5.40;99.90;;;;;;5030865;28;20470;-63
2022/02/22 01:45:34;;;;;;;15.77;3.80;;;5.40;99.90;;;;;;5030384;28;20474;-63
2022/02/22 01:48:03;;;;;;;18.70;4.43;;;5.40;99.90;;;;;;5030878;28;20525;-63
2022/02/22 01:50:31;;;;;;;18.30;3.70;;;5.40;99.90;;;;;;5030463;28;20465;-63
2022/02/22 01:53:01;;;;;;;13.43;3.17;;;5.40;99.90;;;;;;5031354;28;20631;-63
2022/02/22 01:55:30;;;;;;;23.37;3.43;;;5.40;99.90;;;;;;5030252;28;20558;-63
2022/02/22 01:57:58;;;;;;;20.33;4.00;;;5.40;99.90;;;;;;5030775;28;20454;-63
2022/02/22 02:00:27;;;;;;;17.97;4.30;;;5.40;99.90;;;;;;5027799;28;20224;-63
2022/02/22 02:02:56;;;;;;;21.47;3.53;;;5.40;99.90;;;;;;5012635;28;20989;-63
2022/02/22 02:05:24;;;;;;;22.40;4.43;;;5.30;99.90;;;;;;5021505;28;20313;-63
2022/02/22 02:07:53;;;;;;;18.40;3.87;;;5.30;99.90;;;;;;4998654;28;20264;-63
2022/02/22 02:10:22;;;;;;;22.77;3.87;;;5.30;99.90;;;;;;5008401;28;20326;-63
2022/02/22 02:12:50;;;;;;;20.60;3.90;;;5.30;99.90;;;;;;5018728;28;20235;-63
2022/02/22 02:15:18;;;;;;;22.93;3.77;;;5.30;99.90;;;;;;5025795;28;20471;-63
2022/02/22 02:17:46;;;;;;;22.60;3.83;;;5.30;99.90;;;;;;5047138;28;20477;-63
2022/02/22 02:20:18;;;;;;;21.60;3.97;;;5.20;99.90;;;;;;5034994;28;20236;-63
2022/02/22 02:22:47;;;;;;;27.73;4.87;;;5.20;99.90;;;;;;5033950;28;20249;-63
2022/02/22 02:25:18;;;;;;;21.40;4.03;;;5.20;99.90;;;;;;5034381;28;20870;-63
2022/02/22 02:27:46;;;;;;;23.30;4.87;;;5.20;99.90;;;;;;5034328;28;20475;-63
2022/02/22 02:30:15;;;;;;;23.93;4.40;;;5.20;99.90;;;;;;5033514;28;20560;-63
2022/02/22 02:32:44;;;;;;;23.07;4.47;;;5.20;99.90;;;;;;5033151;28;20476;-63
2022/02/22 02:35:12;;;;;;;24.87;3.90;;;5.20;99.90;;;;;;5034021;28;20231;-63
2022/02/22 02:37:42;;;;;;;24.60;4.43;;;5.10;99.90;;;;;;5033979;28;20477;-63
2022/02/22 02:40:31;;;;;;;19.23;4.10;;;5.10;99.90;;;;;;5033571;28;20240;-63
2022/02/22 02:42:59;;;;;;;18.13;3.73;;;5.10;99.90;;;;;;5034021;28;20246;-63
2022/02/22 02:45:28;;;;;;;26.90;4.93;;;5.10;99.90;;;;;;5033683;28;20244;-63
2022/02/22 02:47:56;;;;;;;26.50;4.80;;;5.20;99.90;;;;;;5033904;28;20232;-63
2022/02/22 02:50:25;;;;;;;18.13;3.43;;;5.10;99.90;;;;;;5033590;28;20482;-63
2022/02/22 02:52:53;;;;;;;24.03;4.93;;;5.10;99.90;;;;;;5034478;28;20480;-63
2022/02/22 02:55:21;;;;;;;25.97;4.37;;;5.10;99.90;;;;;;5033704;28;20549;-63
2022/02/22 02:57:51;;;;;;;23.23;3.83;;;5.10;99.90;;;;;;5033917;28;20458;-63
2022/02/22 03:00:19;;;;;;;19.47;3.37;;;5.20;99.90;;;;;;5032003;28;20474;-63
2022/02/22 03:02:47;;;;;;;20.57;4.33;;;5.20;99.90;;;;;;5033692;28;20470;-63
2022/02/22 03:05:15;;;;;;;18.93;3.73;;;5.20;99.90;;;;;;5033547;28;20474;-63
2022/02/22 03:07:43;;;;;;;23.93;4.40;;;5.20;99.90;;;;;;5033341;28;20466;-63
2022/02/22 03:10:11;;;;;;;18.00;3.83;;;5.20;99.90;;;;;;5033480;28;20528;-63
2022/02/22 03:12:39;;;;;;;18.83;3.33;;;5.20;99.90;;;;;;5033903;28;23245;-63
2022/02/22 03:15:10;;;;;;;21.23;4.00;;;5.20;99.90;;;;;;5033264;28;20236;-63
2022/02/22 03:17:38;;;;;;;21.13;3.57;;;5.10;99.90;;;;;;5033276;28;20918;-63
2022/02/22 03:20:07;;;;;;;16.93;3.70;;;5.10;99.90;;;;;;5033286;28;20239;-63
2022/02/22 03:22:36;;;;;;;22.67;3.57;;;5.10;99.90;;;;;;5032977;28;20528;-63
2022/02/22 03:25:04;;;;;;;30.47;4.63;;;5.10;99.90;;;;;;5033191;28;20482;-63
2022/02/22 03:27:34;;;;;;;22.87;5.20;;;5.10;99.90;;;;;;5033194;28;20475;-63
2022/02/22 03:30:46;;;;;;;23.67;3.90;;;5.10;99.90;;;;;;5032849;28;20466;-63
2022/02/22 03:33:16;;;;;;;21.97;3.70;;;5.10;99.90;;;;;;5023364;28;21001;-63
2022/02/22 03:35:45;;;;;;;24.13;3.87;;;5.10;99.90;;;;;;5013313;28;21098;-63
2022/02/22 03:38:14;;;;;;;33.20;5.17;;;5.20;99.90;;;;;;5013291;28;20465;-63
2022/02/22 03:40:42;;;;;;;19.53;3.87;;;5.20;99.90;;;;;;5032106;28;20474;-63
2022/02/22 03:43:10;;;;;;;24.03;4.97;;;5.20;99.90;;;;;;5032894;28;20314;-63
2022/02/22 03:45:42;;;;;;;25.40;4.70;;;5.20;99.90;;;;;;5013070;28;20971;-63
2022/02/22 03:48:10;;;;;;;20.93;4.07;;;5.30;99.90;;;;;;5013011;28;20453;-63
2022/02/22 03:50:42;;;;;;;28.30;3.87;;;5.30;99.90;;;;;;5014924;28;20476;-63
2022/02/22 03:53:10;;;;;;;23.13;4.13;;;5.20;99.90;;;;;;5022664;28;20494;-63
2022/02/22 03:55:38;;;;;;;21.90;3.77;;;5.20;99.90;;;;;;5031992;28;20503;-63
2022/02/22 03:58:06;;;;;;;23.50;3.40;;;5.10;99.90;;;;;;5012911;28;20244;-63
2022/02/22 04:00:35;;;;;;;18.77;3.73;;;5.00;99.90;;;;;;5031261;28;20554;-63
2022/02/22 04:03:04;;;;;;;22.00;3.87;;;4.90;99.90;;;;;;5032657;28;20471;-63
2022/02/22 04:05:33;;;;;;;18.93;3.70;;;4.80;99.90;;;;;;5032281;28;20239;-63
2022/02/22 04:08:03;;;;;;;22.90;4.27;;;4.70;99.90;;;;;;5032490;28;20236;-63
2022/02/22 04:10:32;;;;;;;20.50;3.63;;;4.70;99.90;;;;;;5031622;28;20470;-63
2022/02/22 04:13:00;;;;;;;26.40;3.83;;;4.70;99.90;;;;;;5032908;28;20236;-63
2022/02/22 04:15:28;;;;;;;23.97;3.47;;;4.70;99.90;;;;;;5031955;28;20513;-63
2022/02/22 04:17:56;;;;;;;31.57;4.90;;;4.80;99.90;;;;;;5032384;28;20474;-63
2022/02/22 04:20:24;;;;;;;24.50;4.07;;;4.90;99.90;;;;;;5031608;28;20463;-63
2022/02/22 04:22:53;;;;;;;20.90;3.93;;;4.90;99.90;;;;;;5031978;28;20480;-63
2022/02/22 04:25:22;;;;;;;23.30;4.13;;;4.90;99.90;;;;;;5031936;28;20240;-63
2022/02/22 04:27:51;;;;;;;24.37;4.63;;;4.80;99.90;;;;;;5032183;28;20987;-63
2022/02/22 04:30:19;;;;;;;23.67;3.80;;;4.80;99.90;;;;;;5031394;28;20507;-63
2022/02/22 04:32:48;;;;;;;23.90;4.83;;;4.80;99.90;;;;;;5032905;28;20489;-63
2022/02/22 04:35:16;;;;;;;20.10;4.50;;;4.80;99.90;;;;;;5031957;28;20969;-63
2022/02/22 04:37:44;;;;;;;20.13;3.47;;;4.90;99.90;;;;;;5031788;28;20557;-63
2022/02/22 04:40:12;;;;;;;17.17;3.90;;;4.90;99.90;;;;;;5031049;28;20475;-63
2022/02/22 04:42:42;;;;;;;13.57;3.30;;;4.90;99.90;;;;;;5030918;28;20475;-63
2022/02/22 04:45:10;;;;;;;21.53;2.97;;;4.80;99.90;;;;;;5031741;28;20478;-63
2022/02/22 04:47:38;;;;;;;17.07;2.83;;;4.80;99.90;;;;;;5031448;28;20481;-63
2022/02/22 04:50:08;;;;;;;16.70;2.77;;;4.80;99.90;;;;;;5031485;28;20478;-63
2022/02/22 04:52:36;;;;;;;12.67;2.97;;;4.80;99.90;;;;;;5016715;28;20485;-63
2022/02/22 04:55:06;;;;;;;22.33;4.00;;;4.70;99.90;;;;;;5031531;28;20912;-63
2022/02/22 04:57:35;;;;;;;21.63;3.43;;;4.70;99.90;;;;;;5031320;28;20479;-63
2022/02/22 05:00:07;;;;;;;25.83;3.77;;;4.70;99.90;;;;;;5031580;28;20737;-63
2022/02/22 05:02:35;;;;;;;22.67;4.10;;;4.70;99.90;;;;;;5011958;28;20511;-63
2022/02/22 05:05:04;;;;;;;24.27;4.03;;;4.70;99.90;;;;;;5026540;28;20481;-63
2022/02/22 05:07:32;;;;;;;26.03;3.97;;;4.60;99.90;;;;;;5031165;28;20857;-63
2022/02/22 05:10:02;;;;;;;19.67;4.10;;;4.60;99.90;;;;;;5031446;28;20471;-63
2022/02/22 05:12:30;;;;;;;24.23;3.97;;;4.60;99.90;;;;;;5031167;28;20247;-63
2022/02/22 05:14:58;;;;;;;22.70;3.63;;;4.60;99.90;;;;;;5031085;28;20485;-63
2022/02/22 05:17:27;;;;;;;22.33;4.07;;;4.60;99.90;;;;;;5031329;28;20474;-63
2022/02/22 05:19:55;;;;;;;21.07;4.50;;;4.60;99.90;;;;;;5030977;28;20477;-63
2022/02/22 05:22:23;;;;;;;21.67;4.33;;;4.60;99.90;;;;;;5030012;28;20478;-63
2022/02/22 05:24:51;;;;;;;25.37;4.07;;;4.60;99.90;;;;;;5030840;28;20545;-63
2022/02/22 05:27:20;;;;;;;20.63;3.60;;;4.60;99.90;;;;;;5031172;28;20835;-63
2022/02/22 05:29:48;;;;;;;26.93;4.80;;;4.60;99.90;;;;;;5031237;28;20544;-63
2022/02/22 05:32:16;;;;;;;26.20;5.57;;;4.60;99.90;;;;;;5031147;28;20486;-63
2022/02/22 05:34:46;;;;;;;23.97;3.60;;;4.60;99.90;;;;;;5030637;28;20486;-63
2022/02/22 05:37:14;;;;;;;23.77;3.73;;;4.70;99.90;;;;;;5030908;28;20455;-63
2022/02/22 05:39:42;;;;;;;26.93;3.87;;;4.70;99.90;;;;;;5030736;28;20520;-63
2022/02/22 05:42:10;;;;;;;24.63;3.97;;;4.70;99.90;;;;;;5030275;28;20452;-63
2022/02/22 05:44:39;;;;;;;18.47;3.50;;;4.70;99.90;;;;;;5020877;28;20324;-63
2022/02/22 05:47:07;;;;;;;22.90;4.00;;;4.70;99.90;;;;;;5011049;28;20491;-63
2022/02/22 05:49:35;;;;;;;19.17;3.17;;;4.80;99.90;;;;;;5021855;28;20616;-63
2022/02/22 05:52:05;;;;;;;22.37;3.63;;;4.80;99.90;;;;;;5030156;28;20478;-63
2022/02/22 05:54:33;;;;;;;21.17;3.63;;;4.90;99.90;;;;;;5030702;28;20975;-63
2022/02/22 05:57:01;;;;;;;21.00;3.67;;;4.90;99.90;;;;;;5030557;28;20475;-63
2022/02/22 05:59:30;;;;;;;21.03;3.87;;;4.90;99.90;;;;;;5030419;28;20498;-63
2022/02/22 06:01:58;;;;;;;15.80;3.00;;;4.90;99.90;;;;;;5029884;28;20798;-63
2022/02/22 06:04:26;;;;;;;18.17;3.80;;;5.00;99.90;;;;;;5030295;28;20236;-63
2022/02/22 06:06:54;;;;;;;18.60;3.23;;;5.00;99.90;;;;;;5030476;28;20474;-63
2022/02/22 06:09:24;;;;;;;18.63;3.33;;;5.00;99.90;;;;;;5030071;28;20267;-63
2022/02/22 06:11:52;;;;;;;22.53;3.23;;;5.00;99.90;;;;;;5021872;28;20520;-63
2022/02/22 06:14:20;;;;;;;21.83;3.90;;;5.00;99.90;;;;;;5030274;28;20498;-63
2022/02/22 06:16:53;;;;;;;25.83;3.53;;;4.90;99.90;;;;;;5031910;28;20488;-63
2022/02/22 06:19:26;;;;;;;19.73;3.40;;;4.90;99.90;;;;;;5025509;28;20482;-63
2022/02/22 06:21:54;;;;;;;20.23;3.43;;;4.90;99.90;;;;;;5031675;28;21103;-63
2022/02/22 06:24:24;;;;;;;19.10;3.60;;;4.90;99.90;;;;;;5026501;28;20559;-64
2022/02/22 06:26:52;;;;;;;19.67;3.60;;;4.80;99.90;;;;;;5028027;28;20244;-63
2022/02/22 06:29:20;;;;;;;16.87;3.27;;;4.80;99.90;;;;;;5030259;28;20505;-63
2022/02/22 06:31:50;;;;;;;21.03;3.77;;;4.80;99.90;;;;;;5019223;28;20483;-64
2022/02/22 06:34:19;;;;;;;21.57;4.17;;;4.80;99.90;;;;;;5030104;28;20475;-64
2022/02/22 06:36:47;;;;;;;28.00;3.60;;;4.80;99.90;;;;;;5029820;28;20459;-64
2022/02/22 06:39:15;;;;;;;18.87;3.53;;;4.80;99.90;;;;;;5029876;28;20498;-64
2022/02/22 06:41:45;;;;;;;21.20;3.93;;;4.80;99.90;;;;;;5030282;28;20491;-64
2022/02/22 06:44:15;;;;;;;18.50;2.93;;;4.80;99.90;;;;;;5032070;28;20540;-64
2022/02/22 06:46:43;;;;;;;24.30;3.87;;;4.80;99.90;;;;;;5037948;28;20470;-63
2022/02/22 06:49:11;;;;;;;15.03;3.77;;;4.80;99.90;;;;;;5036898;28;20462;-64
2022/02/22 06:51:39;;;;;;;22.40;3.30;;;4.80;99.90;;;;;;5033062;28;20489;-64
2022/02/22 06:54:08;;;;;;;23.03;3.63;;;4.80;99.90;;;;;;5031292;28;21064;-64
2022/02/22 06:56:36;;;;;;;15.07;3.13;;;4.80;99.90;;;;;;5030928;28;20481;-64
2022/02/22 06:59:05;;;;;;;18.80;3.20;;;4.80;99.90;;;;;;5030366;28;20877;-64
2022/02/22 07:01:33;;;;;;;18.83;3.40;;;4.80;99.90;;;;;;5032621;28;20750;-64
2022/02/22 07:04:01;;;;;;;15.70;3.37;;;4.90;99.90;;;;;;5035093;28;20327;-64
2022/02/22 07:06:29;;;;;;;22.13;2.93;;;4.90;99.90;;;;;;5041792;28;20287;-64
2022/02/22 07:08:58;;;;;;;19.30;3.00;;;4.90;99.90;;;;;;5047627;28;20882;-64
2022/02/22 07:11:26;;;;;;;13.23;2.63;;;4.90;99.90;;;;;;5043196;28;20479;-64
2022/02/22 07:13:54;;;;;;;22.90;3.43;;;4.90;99.90;;;;;;5046429;28;20566;-64
2022/02/22 07:16:24;;;;;;;18.60;3.60;;;4.90;99.90;;;;;;5043038;28;20236;-64
2022/02/22 07:18:54;;;;;;;16.97;3.23;;;4.90;99.90;;;;;;5047808;28;20486;-64
2022/02/22 07:21:23;;;;;;;21.50;3.70;;;4.90;99.90;;;;;;5046571;28;20477;-64
2022/02/22 07:23:52;;;;;;;16.57;3.00;;;4.90;99.90;;;;;;5045979;28;20471;-64
2022/02/22 07:26:20;;;;;;;18.33;3.53;;;5.00;99.90;;;;;;5042263;28;20302;-64
2022/02/22 07:28:48;;;;;;;19.33;3.63;;;4.90;99.90;;;;;;5048520;28;20471;-64
2022/02/22 07:31:16;;;;;;;18.57;3.00;;;5.00;99.90;;;;;;5042781;28;20524;-64
2022/02/22 07:33:46;;;;;;;20.07;3.60;;;5.00;99.90;;;;;;5047254;28;20466;-64
2022/02/22 07:36:20;;;;;;;19.73;3.40;;;5.00;99.90;;;;;;5042351;28;20474;-64
2022/02/22 07:38:48;;;;;;;20.17;3.07;;;5.00;99.90;;;;;;5046793;28;20531;-64
2022/02/22 07:41:22;;;;;;;22.23;4.67;;;5.10;99.90;;;;;;5033024;28;20467;-64
2022/02/22 07:43:51;;;;;;;18.00;3.30;;;5.20;99.90;;;;;;5044810;28;20484;-64
2022/02/22 07:46:20;;;;;;;22.00;3.60;;;5.10;99.90;;;;;;5033502;28;20486;-64
2022/02/22 07:48:49;;;;;;;24.73;4.00;;;5.20;99.90;;;;;;5035159;28;20514;-64
2022/02/22 07:51:18;;;;;;;21.33;3.40;;;5.20;99.90;;;;;;5035132;28;20962;-64
2022/02/22 07:53:47;;;;;;;24.40;3.40;;;5.10;99.90;;;;;;5042251;28;20478;-64
2022/02/22 07:56:16;;;;;;;21.27;3.93;;;5.10;99.90;;;;;;5024693;28;20494;-64
2022/02/22 07:59:05;;;;;;;18.33;3.00;;;5.20;99.90;;;;;;5024646;28;20483;-64
2022/02/22 08:01:33;;;;;;;19.40;3.87;;;5.30;99.90;;;;;;5032261;28;20247;-64
2022/02/22 08:04:03;;;;;;;28.33;3.80;;;5.40;99.90;;;;;;5032385;28;20541;-64
2022/02/22 08:06:31;;;;;;;20.13;3.60;;;5.50;99.90;;;;;;5032179;28;20240;-63
2022/02/22 08:08:59;;;;;;;19.37;3.30;;;5.60;99.90;;;;;;5032144;28;20486;-63
2022/02/22 08:11:31;;;;;;;20.10;3.30;;;5.70;99.90;;;;;;5033215;28;20240;-63
2022/02/22 08:14:00;;;;;;;15.87;3.23;;;5.70;99.90;;;;;;5045847;28;20659;-63
2022/02/22 08:16:29;;;;;;;19.70;3.77;;;5.80;99.90;;;;;;5031886;28;20247;-64
2022/02/22 08:19:01;;;;;;;13.93;3.33;;;6.00;99.90;;;;;;5032104;28;20328;-63
2022/02/22 08:21:30;;;;;;;17.13;3.10;;;6.20;99.90;;;;;;5032039;28;20254;-63
2022/02/22 08:23:59;;;;;;;17.90;3.60;;;6.40;99.90;;;;;;5029913;28;20246;-64
2022/02/22 08:26:37;;;;;;;21.17;3.57;;;6.40;99.90;;;;;;5034070;28;20274;-63
2022/02/22 08:29:05;;;;;;;17.47;4.30;;;6.30;99.90;;;;;;5035099;28;20738;-63
2022/02/22 08:31:33;;;;;;;17.23;3.50;;;6.40;99.90;;;;;;5043112;28;20231;-63
2022/02/22 08:34:02;;;;;;;21.53;3.63;;;6.30;99.90;;;;;;5043877;28;20232;-63
2022/02/22 08:36:32;;;;;;;25.67;4.30;;;6.50;99.90;;;;;;5031788;28;20241;-63
2022/02/22 08:39:00;;;;;;;21.23;3.97;;;6.80;99.90;;;;;;5031834;28;20639;-63
2022/02/22 08:41:29;;;;;;;22.03;4.10;;;7.00;99.90;;;;;;5031644;28;20264;-63
2022/02/22 08:44:00;;;;;;;19.37;4.07;;;7.30;99.90;;;;;;5031548;28;20293;-63
2022/02/22 08:46:29;;;;;;;19.90;4.47;;;7.50;99.90;;;;;;5031594;28;20608;-63
2022/02/22 08:49:00;;;;;;;20.17;3.90;;;7.60;99.90;;;;;;5031558;28;20604;-63
2022/02/22 08:51:28;;;;;;;20.00;4.20;;;7.60;99.90;;;;;;5032830;28;20236;-63
2022/02/22 08:53:58;;;;;;;20.00;4.70;;;7.60;99.90;;;;;;5045669;28;20650;-63
2022/02/22 08:56:26;;;;;;;20.20;4.37;;;7.60;99.90;;;;;;5031244;28;20324;-63
2022/02/22 08:58:54;;;;;;;19.93;4.20;;;7.70;99.90;;;;;;5031199;28;20302;-61
2022/02/22 09:01:23;;;;;;;23.87;4.07;;;8.00;99.90;;;;;;5031480;28;20323;-61
2022/02/22 09:03:52;;;;;;;21.03;4.00;;;7.90;99.90;;;;;;5031389;28;20260;-61
2022/02/22 09:06:20;;;;;;;25.23;4.33;;;7.90;99.90;;;;;;5031826;28;20236;-61
2022/02/22 09:08:48;;;;;;;20.53;3.70;;;7.80;99.90;;;;;;5031270;28;20794;-61
2022/02/22 09:11:18;;;;;;;16.87;3.53;;;7.60;99.90;;;;;;5031326;28;20256;-61
2022/02/22 09:13:46;;;;;;;24.47;4.63;;;7.70;99.90;;;;;;5030587;28;20612;-61
2022/02/22 09:16:14;;;;;;;26.50;4.47;;;7.60;99.90;;;;;;5031398;28;20243;-61
2022/02/22 09:18:42;;;;;;;22.77;3.97;;;7.70;99.90;;;;;;5030965;28;20272;-61
2022/02/22 09:21:10;;;;;;;19.43;4.00;;;7.60;99.90;;;;;;5031040;28;20266;-61
2022/02/22 09:23:39;;;;;;;19.83;4.93;;;7.70;99.90;;;;;;5030514;28;20302;-61
2022/02/22 09:26:08;;;;;;;22.40;4.53;;;7.70;99.90;;;;;;5031026;28;20259;-61
2022/02/22 09:28:37;;;;;;;18.33;4.07;;;7.90;99.90;;;;;;5030177;28;20241;-61
2022/02/22 09:31:06;;;;;;;22.40;5.03;;;8.00;99.90;;;;;;5030890;28;20232;-61
2022/02/22 09:33:34;;;;;;;18.67;3.63;;;8.20;99.90;;;;;;5046476;28;20236;-61
2022/02/22 09:36:02;;;;;;;18.43;3.40;;;8.40;99.90;;;;;;5030911;28;20232;-61
2022/02/22 09:38:31;;;;;;;15.17;3.47;;;8.50;99.90;;;;;;5030668;28;20336;-61
2022/02/22 09:41:01;;;;;;;18.10;3.83;;;8.50;99.90;;;;;;5030859;28;20260;-61
2022/02/22 09:43:31;;;;;;;24.13;3.93;;;8.40;99.90;;;;;;5039862;28;20589;-61
2022/02/22 09:46:01;;;;;;;19.27;3.70;;;8.40;99.90;;;;;;5030651;28;20240;-61
2022/02/22 09:48:30;;;;;;;20.83;4.17;;;8.30;99.90;;;;;;5030484;28;20766;-61
2022/02/22 09:50:58;;;;;;;20.60;4.43;;;8.30;99.90;;;;;;5030688;28;20236;-61
2022/02/22 09:53:27;;;;;;;22.17;4.07;;;8.20;99.90;;;;;;5046067;28;20293;-61
2022/02/22 09:55:56;;;;;;;18.60;3.47;;;8.20;99.90;;;;;;5030420;28;20724;-61
2022/02/22 09:58:25;;;;;;;20.53;3.73;;;8.20;99.90;;;;;;5030468;28;20271;-61
2022/02/22 10:01:02;;;;;;;26.97;4.00;;;8.10;99.90;;;;;;5030786;28;20242;-61
2022/02/22 10:03:31;;;;;;;13.80;3.53;;;8.10;99.90;;;;;;5030353;28;20244;-61
2022/02/22 10:06:00;;;;;;;18.70;3.67;;;8.20;99.90;;;;;;5030676;28;20240;-61
2022/02/22 10:08:30;;;;;;;16.03;3.00;;;8.30;99.90;;;;;;5030417;28;20240;-61
2022/02/22 10:11:04;;;;;;;16.87;3.83;;;8.30;99.90;;;;;;5030616;28;20796;-61
2022/02/22 10:13:33;;;;;;;20.10;4.47;;;8.50;99.90;;;;;;5046022;28;20227;-61
2022/02/22 10:16:10;;;;;;;27.47;4.50;;;8.60;99.90;;;;;;5030315;28;20278;-61
2022/02/22 10:18:47;;;;;;;19.83;3.67;;;8.50;99.90;;;;;;5029978;28;20612;-61
2022/02/22 10:21:15;;;;;;;21.77;4.20;;;8.50;99.90;;;;;;5030214;28;20286;-61
2022/02/22 10:23:44;;;;;;;22.83;4.00;;;8.50;99.90;;;;;;5029841;28;20311;-61
2022/02/22 10:26:21;;;;;;;20.73;4.33;;;8.70;99.90;;;;;;5030297;28;20757;-61
2022/02/22 10:28:50;;;;;;;20.07;4.00;;;8.70;99.90;;;;;;5030143;28;20260;-61
2022/02/22 10:31:30;;;;;;;24.57;3.50;;;8.70;99.90;;;;;;5030405;28;20236;-61
2022/02/22 10:33:58;;;;;;;17.30;3.60;;;8.60;99.90;;;;;;5030021;28;20236;-61
2022/02/22 10:36:50;;;;;;;24.30;3.93;;;8.70;99.90;;;;;;5019624;28;20324;-61
2022/02/22 10:39:21;;;;;;;19.23;3.63;;;8.60;99.90;;;;;;5021449;28;20237;-61
2022/02/22 10:41:54;;;;;;;17.40;3.77;;;8.50;99.90;;;;;;5022248;28;20244;-61
2022/02/22 10:44:29;;;;;;;20.43;3.70;;;8.60;99.90;;;;;;5025318;28;20712;-61
2022/02/22 10:47:01;;;;;;;16.83;3.73;;;8.70;99.90;;;;;;5022531;28;20236;-61
2022/02/22 10:49:32;;;;;;;15.67;3.53;;;8.60;99.90;;;;;;5030842;28;20244;-61
2022/02/22 10:52:06;;;;;;;13.30;3.33;;;8.40;99.90;;;;;;5030576;28;20823;-61
2022/02/22 10:54:35;;;;;;;14.57;3.40;;;8.40;99.90;;;;;;5029223;28;20268;-61
2022/02/22 10:57:04;;;;;;;23.23;4.43;;;8.40;99.90;;;;;;5028765;28;20279;-61
2022/02/22 10:59:34;;;;;;;14.10;3.17;;;8.40;99.90;;;;;;5028864;28;20249;-61
2022/02/22 11:02:04;;;;;;;18.97;3.70;;;8.40;99.90;;;;;;5029502;28;20241;-61
2022/02/22 11:04:35;;;;;;;25.20;3.63;;;8.40;99.90;;;;;;5029006;28;20748;-61
2022/02/22 11:07:05;;;;;;;17.70;3.87;;;8.60;99.90;;;;;;5028974;28;20319;-61
2022/02/22 11:09:38;;;;;;;13.80;3.60;;;8.60;99.90;;;;;;5028921;28;20249;-61
2022/02/22 11:12:21;;;;;;;20.33;3.63;;;8.70;99.90;;;;;;5029556;28;20236;-61
2022/02/22 11:14:50;;;;;;;18.53;3.53;;;8.70;99.90;;;;;;5028492;28;20244;-61
2022/02/22 11:17:24;;;;;;;18.97;4.07;;;8.80;99.90;;;;;;5028079;28;20248;-61
2022/02/22 11:19:54;;;;;;;25.87;4.37;;;8.70;99.90;;;;;;5028707;28;20244;-61
2022/02/22 11:22:26;;;;;;;22.50;4.03;;;8.60;99.90;;;;;;5028782;28;20245;-61
2022/02/22 11:24:57;;;;;;;15.80;3.23;;;8.60;99.90;;;;;;5028493;28;20659;-61
2022/02/22 11:27:27;;;;;;;16.53;3.40;;;8.50;99.90;;;;;;5027481;28;21195;-61
2022/02/22 11:29:59;;;;;;;21.17;4.10;;;8.50;99.90;;;;;;5025450;28;20335;-61
2022/02/22 11:32:41;;;;;;;19.27;3.07;;;8.50;99.90;;;;;;5029269;28;20573;-61
2022/02/22 11:35:11;;;;;;;15.47;3.13;;;8.40;99.90;;;;;;5037145;28;20236;-61
2022/02/22 11:37:40;;;;;;;15.33;3.40;;;8.40;99.90;;;;;;5032648;28;20247;-61
2022/02/22 11:40:10;;;;;;;11.90;3.60;;;8.50;99.90;;;;;;5031938;28;20681;-61
2022/02/22 11:42:39;;;;;;;16.17;3.40;;;8.60;99.90;;;;;;5032814;28;20704;-61
2022/02/22 11:45:09;;;;;;;26.20;3.97;;;8.50;99.90;;;;;;5032725;28;20240;-61
2022/02/22 11:47:42;;;;;;;13.80;3.17;;;8.50;99.90;;;;;;5028386;28;20294;-61
2022/02/22 11:50:12;;;;;;;18.03;3.67;;;8.50;99.90;;;;;;5028689;28;20229;-61
2022/02/22 11:52:44;;;;;;;13.43;3.40;;;8.40;99.90;;;;;;5032149;28;20236;-61
2022/02/22 11:55:16;;;;;;;19.77;3.50;;;8.50;99.90;;;;;;5030501;28;20237;-61
2022/02/22 11:57:45;;;;;;;20.27;3.70;;;8.50;99.90;;;;;;5012545;28;20303;-61
2022/02/22 12:00:15;;;;;;;19.90;3.73;;;8.60;99.90;;;;;;5028957;28;20597;-61
2022/02/22 12:02:49;;;;;;;13.40;3.03;;;8.60;99.90;;;;;;5032442;28;20323;-61
2022/02/22 12:05:25;;;;;;;16.60;3.27;;;8.70;99.90;;;;;;5036953;28;20319;-61
2022/02/22 12:08:04;;;;;;;20.93;3.80;;;8.80;99.90;;;;;;5036581;28;20701;-61
2022/02/22 12:10:33;;;;;;;17.30;3.27;;;8.70;99.90;;;;;;5029016;28;20229;-61
2022/02/22 12:13:09;;;;;;;13.30;2.60;;;8.80;99.90;;;;;;5029780;28;20717;-61
2022/02/22 12:15:39;;;;;;;13.27;2.77;;;8.60;99.90;;;;;;5031364;28;20786;-61
2022/02/22 12:18:15;;;;;;;18.00;2.77;;;8.50;99.90;;;;;;5031752;28;20604;-61
2022/02/22 12:20:44;;;;;;;13.73;2.87;;;8.40;99.90;;;;;;5032361;28;20248;-61
2022/02/22 12:23:20;;;;;;;16.90;3.40;;;8.30;99.90;;;;;;5032479;28;20225;-61
2022/02/22 12:25:49;;;;;;;15.07;3.90;;;8.30;99.90;;;;;;5032361;28;20677;-61
2022/02/22 12:28:18;;;;;;;12.70;3.10;;;8.40;99.90;;;;;;5018645;28;20316;-61
2022/02/22 12:30:51;;;;;;;10.97;2.93;;;8.40;99.90;;;;;;5032515;28;20320;-61
2022/02/22 12:33:31;;;;;;;19.03;3.17;;;8.30;99.90;;;;;;5032996;28;20312;-61
2022/02/22 12:36:00;;;;;;;21.23;3.60;;;8.20;99.90;;;;;;5031947;28;20307;-61
2022/02/22 12:38:28;;;;;;;16.13;3.00;;;8.20;99.90;;;;;;5032260;28;20627;-61
2022/02/22 12:40:57;;;;;;;10.60;2.60;;;8.10;99.90;;;;;;5032314;28;20240;-61
2022/02/22 12:43:48;;;;;;;14.23;2.67;;;8.20;99.90;;;;;;5031706;28;20244;-61
2022/02/22 12:46:17;;;;;;;17.67;4.07;;;8.30;99.90;;;;;;5032324;28;20228;-61
2022/02/22 12:48:47;;;;;;;17.30;3.50;;;8.20;99.90;;;;;;5031849;28;20232;-61
2022/02/22 12:51:24;;;;;;;16.87;3.60;;;8.20;99.90;;;;;;5032209;28;20224;-61
2022/02/22 12:54:03;;;;;;;17.70;3.67;;;8.20;99.90;;;;;;5031517;28;20239;-61
2022/02/22 12:56:34;;;;;;;18.67;3.53;;;8.20;99.90;;;;;;5031647;28;20236;-61
2022/02/22 12:59:02;;;;;;;13.30;2.87;;;8.10;99.90;;;;;;5031964;28;20239;-61
2022/02/22 13:01:35;;;;;;;11.63;2.70;;;8.10;99.90;;;;;;5031938;28;20236;-61